sensor_id;sensor_type;location;lat;lon;timestamp;temperature;humidity
11540;DHT22;5826;54.756;9.192;2023-06-14T00:00:39;17.40;90.20
11540;DHT22;5826;54.756;9.192;2023-06-14T00:03:08;17.40;90.20
11540;DHT22;5826;54.756;9.192;2023-06-14T00:05:36;17.50;90.20
11540;DHT22;5826;54.756;9.192;2023-06-14T00:08:06;17.40;90.20
11540;DHT22;5826;54.756;9.192;2023-06-14T00:10:33;17.40;90.20
11540;DHT22;5826;54.756;9.192;2023-06-14T00:13:01;17.40;90.20
11540;DHT22;5826;54.756;9.192;2023-06-14T00:15:26;17.60;90.40
11540;DHT22;5826;54.756;9.192;2023-06-14T00:17:52;17.40;90.30
11540;DHT22;5826;54.756;9.192;2023-06-14T00:20:17;17.30;90.40
11540;DHT22;5826;54.756;9.192;2023-06-14T00:22:43;17.20;90.30
11540;DHT22;5826;54.756;9.192;2023-06-14T00:25:08;17.20;90.50
11540;DHT22;5826;54.756;9.192;2023-06-14T00:27:34;17.20;90.60
11540;DHT22;5826;54.756;9.192;2023-06-14T00:29:59;17.20;90.70
11540;DHT22;5826;54.756;9.192;2023-06-14T00:32:25;17.10;90.60
11540;DHT22;5826;54.756;9.192;2023-06-14T00:34:51;17.10;90.60
11540;DHT22;5826;54.756;9.192;2023-06-14T00:37:17;17.10;90.60
11540;DHT22;5826;54.756;9.192;2023-06-14T00:39:42;17.00;90.70
11540;DHT22;5826;54.756;9.192;2023-06-14T00:42:08;16.90;90.70
11540;DHT22;5826;54.756;9.192;2023-06-14T00:44:33;16.90;90.90
11540;DHT22;5826;54.756;9.192;2023-06-14T00:46:59;16.90;90.90
11540;DHT22;5826;54.756;9.192;2023-06-14T00:49:24;16.90;90.90
11540;DHT22;5826;54.756;9.192;2023-06-14T00:51:50;16.80;91.00
11540;DHT22;5826;54.756;9.192;2023-06-14T00:54:16;16.80;91.00
11540;DHT22;5826;54.756;9.192;2023-06-14T00:56:44;16.80;91.50
11540;DHT22;5826;54.756;9.192;2023-06-14T00:59:10;16.70;91.30
11540;DHT22;5826;54.756;9.192;2023-06-14T01:01:36;16.70;91.50
11540;DHT22;5826;54.756;9.192;2023-06-14T01:04:02;16.70;91.60
11540;DHT22;5826;54.756;9.192;2023-06-14T01:06:51;16.60;91.50
11540;DHT22;5826;54.756;9.192;2023-06-14T01:09:37;16.60;91.50
11540;DHT22;5826;54.756;9.192;2023-06-14T01:12:24;16.60;92.10
11540;DHT22;5826;54.756;9.192;2023-06-14T01:14:51;16.60;92.30
11540;DHT22;5826;54.756;9.192;2023-06-14T01:17:19;16.50;91.70
11540;DHT22;5826;54.756;9.192;2023-06-14T01:19:45;16.50;91.80
11540;DHT22;5826;54.756;9.192;2023-06-14T01:22:11;16.50;91.90
11540;DHT22;5826;54.756;9.192;2023-06-14T01:24:37;16.50;92.10
11540;DHT22;5826;54.756;9.192;2023-06-14T01:27:05;16.50;92.00
11540;DHT22;5826;54.756;9.192;2023-06-14T01:29:31;16.50;92.20
11540;DHT22;5826;54.756;9.192;2023-06-14T01:32:01;16.50;92.30
11540;DHT22;5826;54.756;9.192;2023-06-14T01:34:27;16.50;92.40
11540;DHT22;5826;54.756;9.192;2023-06-14T01:36:53;16.40;92.20
11540;DHT22;5826;54.756;9.192;2023-06-14T01:39:21;16.40;92.30
11540;DHT22;5826;54.756;9.192;2023-06-14T01:41:47;16.40;92.20
11540;DHT22;5826;54.756;9.192;2023-06-14T01:44:16;16.40;92.40
11540;DHT22;5826;54.756;9.192;2023-06-14T01:46:43;16.30;92.30
11540;DHT22;5826;54.756;9.192;2023-06-14T01:49:09;16.30;92.30
11540;DHT22;5826;54.756;9.192;2023-06-14T01:51:34;16.30;92.40
11540;DHT22;5826;54.756;9.192;2023-06-14T01:54:00;16.30;92.40
11540;DHT22;5826;54.756;9.192;2023-06-14T01:56:26;16.20;92.50
11540;DHT22;5826;54.756;9.192;2023-06-14T01:58:52;16.20;92.40
11540;DHT22;5826;54.756;9.192;2023-06-14T02:01:19;16.20;92.30
11540;DHT22;5826;54.756;9.192;2023-06-14T02:03:46;16.10;92.30
11540;DHT22;5826;54.756;9.192;2023-06-14T02:06:12;16.10;92.40
11540;DHT22;5826;54.756;9.192;2023-06-14T02:08:37;16.10;92.50
11540;DHT22;5826;54.756;9.192;2023-06-14T02:11:03;16.00;92.50
11540;DHT22;5826;54.756;9.192;2023-06-14T02:13:28;16.00;92.50
11540;DHT22;5826;54.756;9.192;2023-06-14T02:15:54;15.90;92.50
11540;DHT22;5826;54.756;9.192;2023-06-14T02:18:20;15.90;92.50
11540;DHT22;5826;54.756;9.192;2023-06-14T02:20:47;15.80;92.60
11540;DHT22;5826;54.756;9.192;2023-06-14T02:23:12;15.80;92.60
11540;DHT22;5826;54.756;9.192;2023-06-14T02:25:38;15.70;92.60
11540;DHT22;5826;54.756;9.192;2023-06-14T02:28:05;15.70;92.90
11540;DHT22;5826;54.756;9.192;2023-06-14T02:30:31;15.70;92.80
11540;DHT22;5826;54.756;9.192;2023-06-14T02:32:57;15.70;92.90
11540;DHT22;5826;54.756;9.192;2023-06-14T02:35:22;15.60;92.80
11540;DHT22;5826;54.756;9.192;2023-06-14T02:37:51;15.60;92.80
11540;DHT22;5826;54.756;9.192;2023-06-14T02:40:18;15.60;92.90
11540;DHT22;5826;54.756;9.192;2023-06-14T02:42:44;15.60;92.90
11540;DHT22;5826;54.756;9.192;2023-06-14T02:45:09;15.50;93.00
11540;DHT22;5826;54.756;9.192;2023-06-14T02:47:35;15.50;92.90
11540;DHT22;5826;54.756;9.192;2023-06-14T02:50:00;15.50;93.00
11540;DHT22;5826;54.756;9.192;2023-06-14T02:52:26;15.50;93.30
11540;DHT22;5826;54.756;9.192;2023-06-14T02:54:51;15.50;93.30
11540;DHT22;5826;54.756;9.192;2023-06-14T02:57:17;15.50;93.40
11540;DHT22;5826;54.756;9.192;2023-06-14T02:59:42;15.50;93.40
11540;DHT22;5826;54.756;9.192;2023-06-14T03:02:08;15.40;93.40
11540;DHT22;5826;54.756;9.192;2023-06-14T03:04:33;15.40;93.30
11540;DHT22;5826;54.756;9.192;2023-06-14T03:07:02;15.40;93.30
11540;DHT22;5826;54.756;9.192;2023-06-14T03:09:37;15.40;93.20
11540;DHT22;5826;54.756;9.192;2023-06-14T03:12:03;15.30;93.30
11540;DHT22;5826;54.756;9.192;2023-06-14T03:14:29;15.30;93.40
11540;DHT22;5826;54.756;9.192;2023-06-14T03:16:56;15.30;93.30
11540;DHT22;5826;54.756;9.192;2023-06-14T03:19:22;15.30;93.20
11540;DHT22;5826;54.756;9.192;2023-06-14T03:21:48;15.30;93.20
11540;DHT22;5826;54.756;9.192;2023-06-14T03:24:14;15.20;93.40
11540;DHT22;5826;54.756;9.192;2023-06-14T03:26:41;15.20;93.30
11540;DHT22;5826;54.756;9.192;2023-06-14T03:29:07;15.20;93.40
11540;DHT22;5826;54.756;9.192;2023-06-14T03:31:34;15.20;93.40
11540;DHT22;5826;54.756;9.192;2023-06-14T03:34:00;15.20;93.40
11540;DHT22;5826;54.756;9.192;2023-06-14T03:36:26;15.20;93.40
11540;DHT22;5826;54.756;9.192;2023-06-14T03:38:53;15.30;93.50
11540;DHT22;5826;54.756;9.192;2023-06-14T03:41:18;15.20;93.50
11540;DHT22;5826;54.756;9.192;2023-06-14T03:43:44;15.20;93.60
11540;DHT22;5826;54.756;9.192;2023-06-14T03:46:09;15.20;93.60
11540;DHT22;5826;54.756;9.192;2023-06-14T03:48:35;15.20;93.70
11540;DHT22;5826;54.756;9.192;2023-06-14T03:51:00;15.20;93.60
11540;DHT22;5826;54.756;9.192;2023-06-14T03:53:27;15.20;93.70
11540;DHT22;5826;54.756;9.192;2023-06-14T03:55:54;15.20;93.70
11540;DHT22;5826;54.756;9.192;2023-06-14T03:58:20;15.20;93.60
11540;DHT22;5826;54.756;9.192;2023-06-14T04:00:47;15.10;93.60
11540;DHT22;5826;54.756;9.192;2023-06-14T04:03:12;15.20;93.60
11540;DHT22;5826;54.756;9.192;2023-06-14T04:05:42;15.20;93.80
11540;DHT22;5826;54.756;9.192;2023-06-14T04:08:08;15.20;93.70
11540;DHT22;5826;54.756;9.192;2023-06-14T04:10:34;15.20;93.60
11540;DHT22;5826;54.756;9.192;2023-06-14T04:13:00;15.20;93.70
11540;DHT22;5826;54.756;9.192;2023-06-14T04:15:25;15.20;93.90
11540;DHT22;5826;54.756;9.192;2023-06-14T04:17:53;15.70;93.90
11540;DHT22;5826;54.756;9.192;2023-06-14T04:20:22;15.30;93.70
11540;DHT22;5826;54.756;9.192;2023-06-14T04:22:49;15.40;93.60
11540;DHT22;5826;54.756;9.192;2023-06-14T04:25:15;15.50;93.80
11540;DHT22;5826;54.756;9.192;2023-06-14T04:27:40;15.50;93.90
11540;DHT22;5826;54.756;9.192;2023-06-14T04:30:07;15.50;94.00
11540;DHT22;5826;54.756;9.192;2023-06-14T04:32:33;15.60;93.90
11540;DHT22;5826;54.756;9.192;2023-06-14T04:35:08;15.60;93.60
11540;DHT22;5826;54.756;9.192;2023-06-14T04:37:34;15.60;93.90
11540;DHT22;5826;54.756;9.192;2023-06-14T04:40:00;15.60;94.10
11540;DHT22;5826;54.756;9.192;2023-06-14T04:42:26;15.70;94.00
11540;DHT22;5826;54.756;9.192;2023-06-14T04:44:56;15.70;94.00
11540;DHT22;5826;54.756;9.192;2023-06-14T04:47:22;15.80;94.00
11540;DHT22;5826;54.756;9.192;2023-06-14T04:49:50;15.80;94.30
11540;DHT22;5826;54.756;9.192;2023-06-14T04:52:17;15.80;93.90
11540;DHT22;5826;54.756;9.192;2023-06-14T04:54:46;15.90;94.30
11540;DHT22;5826;54.756;9.192;2023-06-14T04:57:11;16.00;94.20
11540;DHT22;5826;54.756;9.192;2023-06-14T04:59:39;16.00;94.20
11540;DHT22;5826;54.756;9.192;2023-06-14T05:02:05;16.00;94.20
11540;DHT22;5826;54.756;9.192;2023-06-14T05:04:30;16.40;94.10
11540;DHT22;5826;54.756;9.192;2023-06-14T05:06:56;16.10;93.90
11540;DHT22;5826;54.756;9.192;2023-06-14T05:09:22;16.20;94.20
11540;DHT22;5826;54.756;9.192;2023-06-14T05:11:47;16.20;94.20
11540;DHT22;5826;54.756;9.192;2023-06-14T05:14:13;16.20;94.10
11540;DHT22;5826;54.756;9.192;2023-06-14T05:16:40;16.30;94.10
11540;DHT22;5826;54.756;9.192;2023-06-14T05:19:06;16.40;94.00
11540;DHT22;5826;54.756;9.192;2023-06-14T05:21:32;16.40;94.20
11540;DHT22;5826;54.756;9.192;2023-06-14T05:23:59;16.50;94.20
11540;DHT22;5826;54.756;9.192;2023-06-14T05:26:25;16.50;94.00
11540;DHT22;5826;54.756;9.192;2023-06-14T05:28:54;16.60;94.20
11540;DHT22;5826;54.756;9.192;2023-06-14T05:31:24;16.60;93.90
11540;DHT22;5826;54.756;9.192;2023-06-14T05:33:51;16.70;94.10
11540;DHT22;5826;54.756;9.192;2023-06-14T05:36:17;16.70;94.00
11540;DHT22;5826;54.756;9.192;2023-06-14T05:38:43;16.70;93.80
11540;DHT22;5826;54.756;9.192;2023-06-14T05:41:09;16.80;93.90
11540;DHT22;5826;54.756;9.192;2023-06-14T05:43:34;16.90;94.10
11540;DHT22;5826;54.756;9.192;2023-06-14T05:46:00;17.00;94.20
11540;DHT22;5826;54.756;9.192;2023-06-14T05:48:25;17.00;94.20
11540;DHT22;5826;54.756;9.192;2023-06-14T05:50:51;17.10;94.00
11540;DHT22;5826;54.756;9.192;2023-06-14T05:53:17;17.20;93.80
11540;DHT22;5826;54.756;9.192;2023-06-14T05:55:42;17.30;93.90
11540;DHT22;5826;54.756;9.192;2023-06-14T05:58:08;17.40;93.80
11540;DHT22;5826;54.756;9.192;2023-06-14T06:00:33;17.50;93.80
11540;DHT22;5826;54.756;9.192;2023-06-14T06:02:59;17.60;93.70
11540;DHT22;5826;54.756;9.192;2023-06-14T06:05:26;17.70;93.70
11540;DHT22;5826;54.756;9.192;2023-06-14T06:07:52;17.80;93.30
11540;DHT22;5826;54.756;9.192;2023-06-14T06:10:17;17.90;93.30
11540;DHT22;5826;54.756;9.192;2023-06-14T06:12:43;18.00;93.20
11540;DHT22;5826;54.756;9.192;2023-06-14T06:15:09;18.00;93.30
11540;DHT22;5826;54.756;9.192;2023-06-14T06:17:38;18.10;93.20
11540;DHT22;5826;54.756;9.192;2023-06-14T06:20:04;18.20;93.10
11540;DHT22;5826;54.756;9.192;2023-06-14T06:22:32;18.20;92.90
11540;DHT22;5826;54.756;9.192;2023-06-14T06:24:57;18.40;93.00
11540;DHT22;5826;54.756;9.192;2023-06-14T06:27:23;18.40;93.00
11540;DHT22;5826;54.756;9.192;2023-06-14T06:29:48;18.50;92.80
11540;DHT22;5826;54.756;9.192;2023-06-14T06:32:15;18.60;92.70
11540;DHT22;5826;54.756;9.192;2023-06-14T06:34:40;18.70;92.80
11540;DHT22;5826;54.756;9.192;2023-06-14T06:37:06;18.80;92.80
11540;DHT22;5826;54.756;9.192;2023-06-14T06:39:31;18.90;92.60
11540;DHT22;5826;54.756;9.192;2023-06-14T06:41:58;19.00;92.50
11540;DHT22;5826;54.756;9.192;2023-06-14T06:44:23;19.00;92.40
11540;DHT22;5826;54.756;9.192;2023-06-14T06:46:49;19.10;92.50
11540;DHT22;5826;54.756;9.192;2023-06-14T06:49:14;19.10;92.50
11540;DHT22;5826;54.756;9.192;2023-06-14T06:51:41;19.20;92.30
11540;DHT22;5826;54.756;9.192;2023-06-14T06:54:08;19.10;92.30
11540;DHT22;5826;54.756;9.192;2023-06-14T06:56:35;19.30;92.20
11540;DHT22;5826;54.756;9.192;2023-06-14T06:59:00;19.30;92.40
11540;DHT22;5826;54.756;9.192;2023-06-14T07:01:26;19.40;92.50
11540;DHT22;5826;54.756;9.192;2023-06-14T07:03:54;19.50;92.20
11540;DHT22;5826;54.756;9.192;2023-06-14T07:06:20;19.50;93.00
11540;DHT22;5826;54.756;9.192;2023-06-14T07:08:46;19.60;92.60
11540;DHT22;5826;54.756;9.192;2023-06-14T07:11:13;19.60;92.40
11540;DHT22;5826;54.756;9.192;2023-06-14T07:13:39;19.70;92.60
11540;DHT22;5826;54.756;9.192;2023-06-14T07:16:05;19.80;92.40
11540;DHT22;5826;54.756;9.192;2023-06-14T07:18:31;19.90;92.30
11540;DHT22;5826;54.756;9.192;2023-06-14T07:20:56;20.00;92.50
11540;DHT22;5826;54.756;9.192;2023-06-14T07:23:22;20.10;92.40
11540;DHT22;5826;54.756;9.192;2023-06-14T07:25:48;20.10;92.00
11540;DHT22;5826;54.756;9.192;2023-06-14T07:28:14;20.20;92.20
11540;DHT22;5826;54.756;9.192;2023-06-14T07:30:39;20.30;91.80
11540;DHT22;5826;54.756;9.192;2023-06-14T07:33:05;20.30;92.20
11540;DHT22;5826;54.756;9.192;2023-06-14T07:35:31;20.40;92.40
11540;DHT22;5826;54.756;9.192;2023-06-14T07:37:56;20.50;91.70
11540;DHT22;5826;54.756;9.192;2023-06-14T07:40:22;20.60;91.80
11540;DHT22;5826;54.756;9.192;2023-06-14T07:42:47;20.60;91.60
11540;DHT22;5826;54.756;9.192;2023-06-14T07:45:15;20.70;91.50
11540;DHT22;5826;54.756;9.192;2023-06-14T07:47:40;20.70;91.40
11540;DHT22;5826;54.756;9.192;2023-06-14T07:50:06;20.80;91.50
11540;DHT22;5826;54.756;9.192;2023-06-14T07:52:32;20.80;91.40
11540;DHT22;5826;54.756;9.192;2023-06-14T07:54:57;20.90;91.60
11540;DHT22;5826;54.756;9.192;2023-06-14T07:57:23;20.90;91.60
11540;DHT22;5826;54.756;9.192;2023-06-14T07:59:49;21.00;91.50
11540;DHT22;5826;54.756;9.192;2023-06-14T08:02:15;21.10;91.60
11540;DHT22;5826;54.756;9.192;2023-06-14T08:04:41;21.20;91.40
11540;DHT22;5826;54.756;9.192;2023-06-14T08:07:07;21.30;91.10
11540;DHT22;5826;54.756;9.192;2023-06-14T08:09:33;21.40;91.20
11540;DHT22;5826;54.756;9.192;2023-06-14T08:11:58;21.40;91.20
11540;DHT22;5826;54.756;9.192;2023-06-14T08:14:23;21.50;91.00
11540;DHT22;5826;54.756;9.192;2023-06-14T08:16:49;21.50;91.10
11540;DHT22;5826;54.756;9.192;2023-06-14T08:19:15;21.60;91.10
11540;DHT22;5826;54.756;9.192;2023-06-14T08:21:42;21.70;91.10
11540;DHT22;5826;54.756;9.192;2023-06-14T08:24:07;21.70;91.00
11540;DHT22;5826;54.756;9.192;2023-06-14T08:26:33;21.80;91.30
11540;DHT22;5826;54.756;9.192;2023-06-14T08:28:58;21.90;91.30
11540;DHT22;5826;54.756;9.192;2023-06-14T08:31:24;22.00;91.30
11540;DHT22;5826;54.756;9.192;2023-06-14T08:33:50;22.10;90.80
11540;DHT22;5826;54.756;9.192;2023-06-14T08:36:16;22.10;91.10
11540;DHT22;5826;54.756;9.192;2023-06-14T08:38:41;22.20;91.20
11540;DHT22;5826;54.756;9.192;2023-06-14T08:41:07;22.20;91.00
11540;DHT22;5826;54.756;9.192;2023-06-14T08:43:34;22.30;90.70
11540;DHT22;5826;54.756;9.192;2023-06-14T08:46:03;22.30;90.70
11540;DHT22;5826;54.756;9.192;2023-06-14T08:48:30;22.40;90.70
11540;DHT22;5826;54.756;9.192;2023-06-14T08:51:02;22.50;90.50
11540;DHT22;5826;54.756;9.192;2023-06-14T08:53:33;22.60;90.50
11540;DHT22;5826;54.756;9.192;2023-06-14T08:56:02;22.60;90.50
11540;DHT22;5826;54.756;9.192;2023-06-14T08:58:30;22.80;90.50
11540;DHT22;5826;54.756;9.192;2023-06-14T09:00:57;22.80;90.50
11540;DHT22;5826;54.756;9.192;2023-06-14T09:03:23;22.90;90.10
11540;DHT22;5826;54.756;9.192;2023-06-14T09:05:56;22.90;90.10
11540;DHT22;5826;54.756;9.192;2023-06-14T09:08:22;23.00;90.10
11540;DHT22;5826;54.756;9.192;2023-06-14T09:10:48;23.10;90.20
11540;DHT22;5826;54.756;9.192;2023-06-14T09:13:14;23.20;90.00
11540;DHT22;5826;54.756;9.192;2023-06-14T09:15:39;23.20;90.00
11540;DHT22;5826;54.756;9.192;2023-06-14T09:18:05;23.30;89.90
11540;DHT22;5826;54.756;9.192;2023-06-14T09:20:32;23.40;89.90
11540;DHT22;5826;54.756;9.192;2023-06-14T09:22:58;23.50;90.00
11540;DHT22;5826;54.756;9.192;2023-06-14T09:25:23;23.50;89.60
11540;DHT22;5826;54.756;9.192;2023-06-14T09:27:51;23.60;89.60
11540;DHT22;5826;54.756;9.192;2023-06-14T09:30:20;23.60;89.60
11540;DHT22;5826;54.756;9.192;2023-06-14T09:32:45;23.80;89.70
11540;DHT22;5826;54.756;9.192;2023-06-14T09:35:11;23.80;89.80
11540;DHT22;5826;54.756;9.192;2023-06-14T09:37:37;23.90;89.70
11540;DHT22;5826;54.756;9.192;2023-06-14T09:40:05;24.00;89.70
11540;DHT22;5826;54.756;9.192;2023-06-14T09:42:33;24.00;89.50
11540;DHT22;5826;54.756;9.192;2023-06-14T09:45:02;24.10;90.00
11540;DHT22;5826;54.756;9.192;2023-06-14T09:47:28;24.20;89.30
11540;DHT22;5826;54.756;9.192;2023-06-14T09:49:55;24.20;89.30
11540;DHT22;5826;54.756;9.192;2023-06-14T09:52:21;24.30;89.30
11540;DHT22;5826;54.756;9.192;2023-06-14T09:54:48;24.30;89.00
11540;DHT22;5826;54.756;9.192;2023-06-14T09:57:21;24.40;89.20
11540;DHT22;5826;54.756;9.192;2023-06-14T09:59:47;24.50;89.10
11540;DHT22;5826;54.756;9.192;2023-06-14T10:02:28;24.60;88.80
11540;DHT22;5826;54.756;9.192;2023-06-14T10:05:08;24.60;88.60
11540;DHT22;5826;54.756;9.192;2023-06-14T10:07:44;24.60;88.50
11540;DHT22;5826;54.756;9.192;2023-06-14T10:10:10;24.70;88.40
11540;DHT22;5826;54.756;9.192;2023-06-14T10:12:36;24.80;87.90
11540;DHT22;5826;54.756;9.192;2023-06-14T10:15:02;24.90;87.70
11540;DHT22;5826;54.756;9.192;2023-06-14T10:17:47;24.90;87.90
11540;DHT22;5826;54.756;9.192;2023-06-14T10:20:28;25.00;87.40
11540;DHT22;5826;54.756;9.192;2023-06-14T10:23:10;25.10;87.80
11540;DHT22;5826;54.756;9.192;2023-06-14T10:25:37;25.10;87.60
11540;DHT22;5826;54.756;9.192;2023-06-14T10:30:37;25.30;87.50
11540;DHT22;5826;54.756;9.192;2023-06-14T10:33:07;25.40;87.10
11540;DHT22;5826;54.756;9.192;2023-06-14T10:35:33;25.50;87.20
11540;DHT22;5826;54.756;9.192;2023-06-14T10:38:19;25.60;87.00
11540;DHT22;5826;54.756;9.192;2023-06-14T10:40:55;25.70;86.80
11540;DHT22;5826;54.756;9.192;2023-06-14T10:43:24;25.80;86.40
11540;DHT22;5826;54.756;9.192;2023-06-14T10:46:16;25.80;86.20
11540;DHT22;5826;54.756;9.192;2023-06-14T10:48:43;25.80;86.10
11540;DHT22;5826;54.756;9.192;2023-06-14T10:51:19;26.00;86.20
11540;DHT22;5826;54.756;9.192;2023-06-14T10:53:49;26.10;86.20
11540;DHT22;5826;54.756;9.192;2023-06-14T10:56:29;26.20;86.10
11540;DHT22;5826;54.756;9.192;2023-06-14T10:58:59;26.30;86.10
11540;DHT22;5826;54.756;9.192;2023-06-14T11:01:35;26.40;85.70
11540;DHT22;5826;54.756;9.192;2023-06-14T11:04:09;26.40;85.80
11540;DHT22;5826;54.756;9.192;2023-06-14T11:06:48;26.40;85.70
11540;DHT22;5826;54.756;9.192;2023-06-14T11:12:03;26.50;84.70
11540;DHT22;5826;54.756;9.192;2023-06-14T11:14:31;26.50;85.30
11540;DHT22;5826;54.756;9.192;2023-06-14T11:16:56;26.50;85.30
11540;DHT22;5826;54.756;9.192;2023-06-14T11:19:22;26.50;85.10
11540;DHT22;5826;54.756;9.192;2023-06-14T11:21:48;26.60;85.00
11540;DHT22;5826;54.756;9.192;2023-06-14T11:24:14;26.70;84.90
11540;DHT22;5826;54.756;9.192;2023-06-14T11:26:40;26.70;84.80
11540;DHT22;5826;54.756;9.192;2023-06-14T11:29:06;26.80;84.70
11540;DHT22;5826;54.756;9.192;2023-06-14T11:31:32;26.90;84.00
11540;DHT22;5826;54.756;9.192;2023-06-14T11:33:58;27.00;83.90
11540;DHT22;5826;54.756;9.192;2023-06-14T11:36:29;27.10;84.40
11540;DHT22;5826;54.756;9.192;2023-06-14T11:39:03;27.20;84.60
11540;DHT22;5826;54.756;9.192;2023-06-14T11:44:03;27.40;84.20
11540;DHT22;5826;54.756;9.192;2023-06-14T11:46:28;27.50;84.10
11540;DHT22;5826;54.756;9.192;2023-06-14T11:48:54;27.50;83.70
11540;DHT22;5826;54.756;9.192;2023-06-14T11:51:20;27.60;84.00
11540;DHT22;5826;54.756;9.192;2023-06-14T11:53:46;27.70;83.90
11540;DHT22;5826;54.756;9.192;2023-06-14T11:56:12;27.80;83.90
11540;DHT22;5826;54.756;9.192;2023-06-14T11:58:37;27.80;83.50
11540;DHT22;5826;54.756;9.192;2023-06-14T12:01:03;27.90;83.40
11540;DHT22;5826;54.756;9.192;2023-06-14T12:03:29;28.00;82.90
11540;DHT22;5826;54.756;9.192;2023-06-14T12:06:08;27.90;82.50
11540;DHT22;5826;54.756;9.192;2023-06-14T12:08:38;28.00;82.30
11540;DHT22;5826;54.756;9.192;2023-06-14T12:11:10;28.10;82.50
11540;DHT22;5826;54.756;9.192;2023-06-14T12:13:38;28.20;82.60
11540;DHT22;5826;54.756;9.192;2023-06-14T12:16:07;28.30;82.00
11540;DHT22;5826;54.756;9.192;2023-06-14T12:18:37;28.30;82.40
11540;DHT22;5826;54.756;9.192;2023-06-14T12:21:09;28.40;81.90
11540;DHT22;5826;54.756;9.192;2023-06-14T12:23:48;28.40;81.70
11540;DHT22;5826;54.756;9.192;2023-06-14T12:26:19;28.50;81.00
11540;DHT22;5826;54.756;9.192;2023-06-14T12:28:46;28.60;82.10
11540;DHT22;5826;54.756;9.192;2023-06-14T12:31:12;28.70;81.20
11540;DHT22;5826;54.756;9.192;2023-06-14T12:33:39;28.70;81.60
11540;DHT22;5826;54.756;9.192;2023-06-14T12:36:06;28.90;81.20
11540;DHT22;5826;54.756;9.192;2023-06-14T12:38:33;29.00;81.60
11540;DHT22;5826;54.756;9.192;2023-06-14T12:40:58;29.10;81.10
11540;DHT22;5826;54.756;9.192;2023-06-14T12:43:24;29.10;80.60
11540;DHT22;5826;54.756;9.192;2023-06-14T12:45:49;29.20;81.20
11540;DHT22;5826;54.756;9.192;2023-06-14T12:48:15;29.30;81.00
11540;DHT22;5826;54.756;9.192;2023-06-14T12:50:41;29.40;80.60
11540;DHT22;5826;54.756;9.192;2023-06-14T12:53:07;29.40;80.30
11540;DHT22;5826;54.756;9.192;2023-06-14T12:55:32;29.40;79.70
11540;DHT22;5826;54.756;9.192;2023-06-14T12:57:58;29.50;79.70
11540;DHT22;5826;54.756;9.192;2023-06-14T13:00:24;29.50;80.00
11540;DHT22;5826;54.756;9.192;2023-06-14T13:02:51;29.70;79.90
11540;DHT22;5826;54.756;9.192;2023-06-14T13:05:17;29.80;79.50
11540;DHT22;5826;54.756;9.192;2023-06-14T13:07:43;29.90;79.40
11540;DHT22;5826;54.756;9.192;2023-06-14T13:10:09;29.90;78.80
11540;DHT22;5826;54.756;9.192;2023-06-14T13:12:34;29.90;78.10
11540;DHT22;5826;54.756;9.192;2023-06-14T13:15:00;30.00;78.20
11540;DHT22;5826;54.756;9.192;2023-06-14T13:17:26;30.00;78.40
11540;DHT22;5826;54.756;9.192;2023-06-14T13:19:51;30.10;78.40
11540;DHT22;5826;54.756;9.192;2023-06-14T13:22:17;30.20;78.20
11540;DHT22;5826;54.756;9.192;2023-06-14T13:24:42;30.30;77.30
11540;DHT22;5826;54.756;9.192;2023-06-14T13:27:08;30.30;77.40
11540;DHT22;5826;54.756;9.192;2023-06-14T13:29:33;30.30;77.10
11540;DHT22;5826;54.756;9.192;2023-06-14T13:32:01;30.50;77.30
11540;DHT22;5826;54.756;9.192;2023-06-14T13:34:27;30.60;77.10
11540;DHT22;5826;54.756;9.192;2023-06-14T13:36:52;30.70;77.10
11540;DHT22;5826;54.756;9.192;2023-06-14T13:39:19;30.90;76.10
11540;DHT22;5826;54.756;9.192;2023-06-14T13:41:44;31.00;75.70
11540;DHT22;5826;54.756;9.192;2023-06-14T13:44:10;31.10;74.50
11540;DHT22;5826;54.756;9.192;2023-06-14T13:46:39;31.10;75.90
11540;DHT22;5826;54.756;9.192;2023-06-14T13:49:05;31.00;74.30
11540;DHT22;5826;54.756;9.192;2023-06-14T13:51:31;31.00;75.20
11540;DHT22;5826;54.756;9.192;2023-06-14T13:53:56;30.90;76.20
11540;DHT22;5826;54.756;9.192;2023-06-14T13:56:21;30.70;76.90
11540;DHT22;5826;54.756;9.192;2023-06-14T13:58:50;30.60;75.60
11540;DHT22;5826;54.756;9.192;2023-06-14T14:01:17;30.50;75.90
11540;DHT22;5826;54.756;9.192;2023-06-14T14:03:45;30.70;74.60
11540;DHT22;5826;54.756;9.192;2023-06-14T14:06:11;30.90;75.40
11540;DHT22;5826;54.756;9.192;2023-06-14T14:08:37;30.90;76.00
11540;DHT22;5826;54.756;9.192;2023-06-14T14:11:03;30.80;75.80
11540;DHT22;5826;54.756;9.192;2023-06-14T14:13:28;30.80;75.70
11540;DHT22;5826;54.756;9.192;2023-06-14T14:15:54;30.80;75.60
11540;DHT22;5826;54.756;9.192;2023-06-14T14:18:19;30.80;75.90
11540;DHT22;5826;54.756;9.192;2023-06-14T14:20:48;30.70;75.80
11540;DHT22;5826;54.756;9.192;2023-06-14T14:23:14;30.70;75.80
11540;DHT22;5826;54.756;9.192;2023-06-14T14:25:40;30.80;75.50
11540;DHT22;5826;54.756;9.192;2023-06-14T14:28:05;30.50;74.50
11540;DHT22;5826;54.756;9.192;2023-06-14T14:30:31;30.40;74.90
11540;DHT22;5826;54.756;9.192;2023-06-14T14:32:56;30.50;75.20
11540;DHT22;5826;54.756;9.192;2023-06-14T14:35:22;30.70;75.50
11540;DHT22;5826;54.756;9.192;2023-06-14T14:37:49;31.10;75.20
11540;DHT22;5826;54.756;9.192;2023-06-14T14:40:15;31.00;73.90
11540;DHT22;5826;54.756;9.192;2023-06-14T14:42:40;31.20;72.90
11540;DHT22;5826;54.756;9.192;2023-06-14T14:45:06;31.50;71.00
11540;DHT22;5826;54.756;9.192;2023-06-14T14:47:32;31.60;73.10
11540;DHT22;5826;54.756;9.192;2023-06-14T14:49:57;31.50;72.40
11540;DHT22;5826;54.756;9.192;2023-06-14T14:52:23;31.20;72.80
11540;DHT22;5826;54.756;9.192;2023-06-14T14:54:48;31.20;72.10
11540;DHT22;5826;54.756;9.192;2023-06-14T14:57:14;31.20;71.60
11540;DHT22;5826;54.756;9.192;2023-06-14T14:59:39;31.30;72.00
11540;DHT22;5826;54.756;9.192;2023-06-14T15:02:05;31.30;71.80
11540;DHT22;5826;54.756;9.192;2023-06-14T15:04:31;31.40;71.70
11540;DHT22;5826;54.756;9.192;2023-06-14T15:06:57;31.50;71.50
11540;DHT22;5826;54.756;9.192;2023-06-14T15:09:22;31.50;72.50
11540;DHT22;5826;54.756;9.192;2023-06-14T15:11:48;31.40;72.50
11540;DHT22;5826;54.756;9.192;2023-06-14T15:14:13;31.40;71.20
11540;DHT22;5826;54.756;9.192;2023-06-14T15:16:40;31.30;73.50
11540;DHT22;5826;54.756;9.192;2023-06-14T15:19:05;31.30;72.60
11540;DHT22;5826;54.756;9.192;2023-06-14T15:21:31;31.20;71.00
11540;DHT22;5826;54.756;9.192;2023-06-14T15:23:56;31.30;71.30
11540;DHT22;5826;54.756;9.192;2023-06-14T15:26:22;31.20;71.60
11540;DHT22;5826;54.756;9.192;2023-06-14T15:28:50;31.10;71.50
11540;DHT22;5826;54.756;9.192;2023-06-14T15:31:15;31.10;72.20
11540;DHT22;5826;54.756;9.192;2023-06-14T15:33:41;31.00;72.90
11540;DHT22;5826;54.756;9.192;2023-06-14T15:36:06;31.00;72.80
11540;DHT22;5826;54.756;9.192;2023-06-14T15:38:34;30.90;73.20
11540;DHT22;5826;54.756;9.192;2023-06-14T15:41:00;30.80;72.90
11540;DHT22;5826;54.756;9.192;2023-06-14T15:43:26;30.80;73.40
11540;DHT22;5826;54.756;9.192;2023-06-14T15:45:51;30.70;73.30
11540;DHT22;5826;54.756;9.192;2023-06-14T15:48:17;30.60;72.80
11540;DHT22;5826;54.756;9.192;2023-06-14T15:50:42;30.70;73.70